Time;durP1;ratioP1;P1;durP2;ratioP2;P2;SDS_P1;SDS_P2;PMS_P1;PMS_P2;Temp;Humidity;BMP_temperature;BMP_pressure;BME280_temperature;BME280_humidity;BME280_pressure;Samples;Min_cycle;Max_cycle;Signal;HPM_P1;HPM_P2
2022/12/11 00:00:58;;;;;;;;;;;;;;;;;;4389510;32;20315;-73
2022/12/11 00:03:23;;;;;;;;;;;;;;;;;;4390796;32;20024;-73
2022/12/11 00:05:48;;;;;;;;;;;;;;;;;;4391655;32;19938;-73
2022/12/11 00:08:14;;;;;;;;;;;;;;;;;;4389842;32;19965;-73
2022/12/11 00:10:39;;;;;;;;;;;;;;;;;;4402523;32;20299;-73
2022/12/11 00:13:04;;;;;;;;;;;;;;;;;;4392175;32;19946;-73
2022/12/11 00:15:29;;;;;;;;;;;;;;;;;;4390701;32;19941;-73
2022/12/11 00:17:54;;;;;;;;;;;;;;;;;;4392530;32;19960;-73
2022/12/11 00:20:19;;;;;;;;;;;;;;;;;;4401776;32;19941;-73
2022/12/11 00:22:44;;;;;;;;;;;;;;;;;;4392146;32;19934;-73
2022/12/11 00:25:09;;;;;;;;;;;;;;;;;;4390776;32;19938;-74
2022/12/11 00:27:34;;;;;;;;;;;;;;;;;;4390897;32;19942;-74
2022/12/11 00:29:59;;;;;;;;;;;;;;;;;;4391960;32;19947;-73
2022/12/11 00:32:25;;;;;;;;;;;;;;;;;;4393041;32;19938;-73
2022/12/11 00:34:50;;;;;;;;;;;;;;;;;;4390943;32;19993;-73
2022/12/11 00:37:15;;;;;;;;;;;;;;;;;;4391667;32;19968;-74
2022/12/11 00:39:40;;;;;;;;;;;;;;;;;;4390775;32;19986;-74
2022/12/11 00:42:05;;;;;;;;;;;;;;;;;;4391293;32;19934;-73
2022/12/11 00:44:30;;;;;;;;;;;;;;;;;;4390952;32;19938;-74
2022/12/11 00:46:55;;;;;;;;;;;;;;;;;;4391503;32;19953;-74
2022/12/11 00:49:20;;;;;;;;;;;;;;;;;;4393804;32;19934;-74
2022/12/11 00:51:45;;;;;;;;;;;;;;;;;;4394026;32;20047;-74
2022/12/11 00:54:11;;;;;;;;;;;;;;;;;;4394251;32;19948;-74
2022/12/11 00:56:36;;;;;;;;;;;;;;;;;;4393907;32;19950;-74
2022/12/11 00:59:01;;;;;;;;;;;;;;;;;;4393548;32;19934;-74
2022/12/11 01:01:26;;;;;;;;;;;;;;;;;;4393445;32;19942;-74
2022/12/11 01:03:51;;;;;;;;;;;;;;;;;;4393370;32;20024;-74
2022/12/11 01:06:16;;;;;;;;;;;;;;;;;;4392209;32;20337;-74
2022/12/11 01:08:41;;;;;;;;;;;;;;;;;;4393849;32;19934;-74
2022/12/11 01:11:06;;;;;;;;;;;;;;;;;;4393520;32;19949;-74
2022/12/11 01:13:31;;;;;;;;;;;;;;;;;;4392943;32;19992;-74
2022/12/11 01:15:57;;;;;;;;;;;;;;;;;;4391999;32;19942;-74
2022/12/11 01:18:22;;;;;;;;;;;;;;;;;;4393807;32;19972;-74
2022/12/11 01:20:47;;;;;;;;;;;;;;;;;;4393532;32;20016;-74
2022/12/11 01:23:12;;;;;;;;;;;;;;;;;;4393897;32;19986;-74
2022/12/11 01:25:38;;;;;;;;;;;;;;;;;;4393331;32;19933;-74
2022/12/11 01:28:03;;;;;;;;;;;;;;;;;;4393465;32;19933;-74
2022/12/11 01:30:28;;;;;;;;;;;;;;;;;;4392976;32;19937;-74
2022/12/11 01:32:53;;;;;;;;;;;;;;;;;;4392274;32;19985;-74
2022/12/11 01:35:18;;;;;;;;;;;;;;;;;;4393176;32;19960;-74
2022/12/11 01:37:43;;;;;;;;;;;;;;;;;;4393674;32;20353;-74
2022/12/11 01:40:08;;;;;;;;;;;;;;;;;;4392962;32;19969;-75
2022/12/11 01:42:33;;;;;;;;;;;;;;;;;;4393026;32;19962;-73
2022/12/11 01:44:59;;;;;;;;;;;;;;;;;;4393078;32;19991;-73
2022/12/11 01:47:24;;;;;;;;;;;;;;;;;;4394291;32;19938;-73
2022/12/11 01:49:49;;;;;;;;;;;;;;;;;;4403044;32;19937;-73
2022/12/11 01:52:14;;;;;;;;;;;;;;;;;;4394498;32;19941;-74
2022/12/11 01:54:39;;;;;;;;;;;;;;;;;;4392969;32;19952;-74
2022/12/11 01:57:04;;;;;;;;;;;;;;;;;;4393250;32;19962;-73
2022/12/11 01:59:29;;;;;;;;;;;;;;;;;;4392822;32;19949;-73
2022/12/11 02:01:54;;;;;;;;;;;;;;;;;;4391365;32;19938;-73
2022/12/11 02:04:19;;;;;;;;;;;;;;;;;;4392923;32;19949;-74
2022/12/11 02:06:45;;;;;;;;;;;;;;;;;;4391182;32;19934;-74
2022/12/11 02:09:10;;;;;;;;;;;;;;;;;;4391723;32;19938;-74
2022/12/11 02:11:35;;;;;;;;;;;;;;;;;;4392792;32;19934;-73
2022/12/11 02:14:01;;;;;;;;;;;;;;;;;;4392467;32;19993;-74
2022/12/11 02:16:26;;;;;;;;;;;;;;;;;;4391141;32;19960;-74
2022/12/11 02:18:51;;;;;;;;;;;;;;;;;;4392896;32;19969;-73
2022/12/11 02:21:16;;;;;;;;;;;;;;;;;;4391203;32;20357;-73
2022/12/11 02:23:41;;;;;;;;;;;;;;;;;;4391616;32;20017;-73
2022/12/11 02:26:06;;;;;;;;;;;;;;;;;;4392569;32;19957;-73
2022/12/11 02:28:31;;;;;;;;;;;;;;;;;;4392532;32;20002;-74
2022/12/11 02:30:56;;;;;;;;;;;;;;;;;;4392844;32;19941;-74
2022/12/11 02:33:21;;;;;;;;;;;;;;;;;;4392520;32;20387;-74
2022/12/11 02:35:46;;;;;;;;;;;;;;;;;;4391226;32;19942;-74
2022/12/11 02:38:12;;;;;;;;;;;;;;;;;;4390618;32;20007;-74
2022/12/11 02:40:37;;;;;;;;;;;;;;;;;;4390833;32;20000;-74
2022/12/11 02:43:02;;;;;;;;;;;;;;;;;;4392182;32;19937;-74
2022/12/11 02:45:27;;;;;;;;;;;;;;;;;;4392329;32;19930;-74
2022/12/11 02:47:52;;;;;;;;;;;;;;;;;;4394978;32;19971;-74
2022/12/11 02:50:17;;;;;;;;;;;;;;;;;;4392773;32;19945;-74
2022/12/11 02:52:42;;;;;;;;;;;;;;;;;;4392345;32;19937;-74
2022/12/11 02:55:07;;;;;;;;;;;;;;;;;;4390849;32;19983;-74
2022/12/11 02:57:33;;;;;;;;;;;;;;;;;;4393074;32;20323;-74
2022/12/11 02:59:58;;;;;;;;;;;;;;;;;;4392450;32;19938;-74
2022/12/11 03:02:23;;;;;;;;;;;;;;;;;;4392712;32;19993;-74
2022/12/11 03:04:48;;;;;;;;;;;;;;;;;;4392135;32;19972;-74
2022/12/11 03:07:13;;;;;;;;;;;;;;;;;;4392150;32;19937;-74
2022/12/11 03:09:38;;;;;;;;;;;;;;;;;;4392044;32;19977;-75
2022/12/11 03:12:03;;;;;;;;;;;;;;;;;;4390946;32;19934;-74
2022/12/11 03:14:28;;;;;;;;;;;;;;;;;;4391339;32;19967;-73
2022/12/11 03:16:54;;;;;;;;;;;;;;;;;;4396364;32;19938;-74
2022/12/11 03:19:19;;;;;;;;;;;;;;;;;;4394460;32;19968;-74
2022/12/11 03:21:44;;;;;;;;;;;;;;;;;;4390464;32;20016;-74
2022/12/11 03:24:09;;;;;;;;;;;;;;;;;;4392306;32;19993;-74
2022/12/11 03:26:34;;;;;;;;;;;;;;;;;;4391565;32;19983;-74
2022/12/11 03:28:59;;;;;;;;;;;;;;;;;;4392185;32;19938;-75
2022/12/11 03:31:25;;;;;;;;;;;;;;;;;;4391483;32;19985;-74
2022/12/11 03:33:50;;;;;;;;;;;;;;;;;;4391284;32;19950;-74
2022/12/11 03:36:15;;;;;;;;;;;;;;;;;;4391586;32;20308;-74
2022/12/11 03:38:41;;;;;;;;;;;;;;;;;;4390932;32;19969;-74
2022/12/11 03:41:06;;;;;;;;;;;;;;;;;;4390106;32;19946;-74
2022/12/11 03:43:31;;;;;;;;;;;;;;;;;;4391079;32;19983;-74
2022/12/11 03:45:56;;;;;;;;;;;;;;;;;;4391190;32;19955;-75
2022/12/11 03:48:22;;;;;;;;;;;;;;;;;;4391497;32;19934;-74
2022/12/11 03:50:47;;;;;;;;;;;;;;;;;;4391468;32;19949;-75
2022/12/11 03:53:12;;;;;;;;;;;;;;;;;;4391189;32;19973;-74
2022/12/11 03:55:37;;;;;;;;;;;;;;;;;;4389804;32;19948;-74
2022/12/11 03:58:02;;;;;;;;;;;;;;;;;;4390832;32;19991;-74
2022/12/11 04:00:27;;;;;;;;;;;;;;;;;;4389188;32;20328;-75
2022/12/11 04:05:36;;;;;;;;;;;;;;;;;;4391531;32;19933;-74
2022/12/11 04:08:01;;;;;;;;;;;;;;;;;;4390450;32;19973;-75
2022/12/11 04:10:26;;;;;;;;;;;;;;;;;;4389821;32;19938;-75
2022/12/11 04:12:51;;;;;;;;;;;;;;;;;;4389888;32;19992;-74
2022/12/11 04:15:16;;;;;;;;;;;;;;;;;;4390391;32;19958;-74
2022/12/11 04:25:53;;;;;;;;;;;;;;;;;;4391686;32;20231;-74
2022/12/11 04:28:18;;;;;;;;;;;;;;;;;;4389925;32;19938;-75
2022/12/11 04:30:44;;;;;;;;;;;;;;;;;;4390982;32;19952;-75
2022/12/11 04:33:09;;;;;;;;;;;;;;;;;;4390971;32;20288;-74
2022/12/11 04:35:34;;;;;;;;;;;;;;;;;;4389220;32;19933;-74
2022/12/11 04:38:00;;;;;;;;;;;;;;;;;;4391229;32;19985;-74
2022/12/11 04:40:25;;;;;;;;;;;;;;;;;;4390985;32;19949;-74
2022/12/11 04:42:50;;;;;;;;;;;;;;;;;;4389569;32;19953;-73
2022/12/11 04:45:15;;;;;;;;;;;;;;;;;;4394382;32;19945;-74
2022/12/11 04:47:40;;;;;;;;;;;;;;;;;;4394505;32;20051;-75
2022/12/11 04:50:05;;;;;;;;;;;;;;;;;;4393138;32;19963;-74
2022/12/11 04:52:30;;;;;;;;;;;;;;;;;;4391010;32;19938;-74
2022/12/11 04:54:55;;;;;;;;;;;;;;;;;;4389579;32;19956;-76
2022/12/11 04:57:20;;;;;;;;;;;;;;;;;;4390938;32;19934;-75
2022/12/11 04:59:46;;;;;;;;;;;;;;;;;;4390735;32;19944;-74
2022/12/11 05:02:11;;;;;;;;;;;;;;;;;;4391947;32;19953;-75
2022/12/11 05:04:36;;;;;;;;;;;;;;;;;;4392755;32;20037;-75
2022/12/11 05:07:01;;;;;;;;;;;;;;;;;;4391279;32;20311;-75
2022/12/11 05:09:26;;;;;;;;;;;;;;;;;;4390707;32;19948;-74
2022/12/11 05:11:51;;;;;;;;;;;;;;;;;;4389390;32;20304;-75
2022/12/11 05:14:17;;;;;;;;;;;;;;;;;;4374764;32;19938;-74
2022/12/11 05:16:42;;;;;;;;;;;;;;;;;;4375898;32;19989;-75
2022/12/11 05:19:07;;;;;;;;;;;;;;;;;;4375690;32;19938;-75
2022/12/11 05:21:32;;;;;;;;;;;;;;;;;;4375803;32;19988;-73
2022/12/11 05:23:57;;;;;;;;;;;;;;;;;;4375409;32;19957;-74
2022/12/11 05:26:22;;;;;;;;;;;;;;;;;;4380157;32;19934;-75
2022/12/11 05:28:47;;;;;;;;;;;;;;;;;;4388953;32;20303;-74
2022/12/11 05:31:12;;;;;;;;;;;;;;;;;;4390580;32;20316;-75
2022/12/11 05:33:37;;;;;;;;;;;;;;;;;;4388835;32;19942;-74
2022/12/11 05:36:03;;;;;;;;;;;;;;;;;;4393411;32;20356;-74
2022/12/11 05:38:28;;;;;;;;;;;;;;;;;;4391790;32;20003;-74
2022/12/11 05:40:53;;;;;;;;;;;;;;;;;;4391496;32;20302;-74
2022/12/11 05:43:18;;;;;;;;;;;;;;;;;;4392805;32;19942;-75
2022/12/11 05:45:43;;;;;;;;;;;;;;;;;;4392834;32;19950;-75
2022/12/11 05:48:08;;;;;;;;;;;;;;;;;;4391396;32;19968;-74
2022/12/11 05:50:33;;;;;;;;;;;;;;;;;;4392813;32;19933;-75
2022/12/11 05:52:59;;;;;;;;;;;;;;;;;;4392683;32;19937;-75
2022/12/11 05:55:24;;;;;;;;;;;;;;;;;;4393856;32;19938;-75
2022/12/11 05:57:49;;;;;;;;;;;;;;;;;;4392351;32;19944;-75
2022/12/11 06:00:14;;;;;;;;;;;;;;;;;;4393228;32;19934;-76
2022/12/11 06:02:39;;;;;;;;;;;;;;;;;;4392235;32;19946;-75
2022/12/11 06:05:04;;;;;;;;;;;;;;;;;;4393997;32;19956;-75
2022/12/11 06:07:29;;;;;;;;;;;;;;;;;;4392458;32;20308;-75
2022/12/11 06:09:54;;;;;;;;;;;;;;;;;;4393345;32;19933;-75
2022/12/11 06:12:19;;;;;;;;;;;;;;;;;;4391619;32;20327;-75
2022/12/11 06:14:45;;;;;;;;;;;;;;;;;;4397618;32;19985;-75
2022/12/11 06:17:10;;;;;;;;;;;;;;;;;;4393974;32;20308;-75
2022/12/11 06:19:35;;;;;;;;;;;;;;;;;;4392308;32;19938;-77
2022/12/11 06:22:00;;;;;;;;;;;;;;;;;;4392532;32;19933;-75
2022/12/11 06:24:25;;;;;;;;;;;;;;;;;;4392171;32;19948;-74
2022/12/11 06:26:50;;;;;;;;;;;;;;;;;;4392455;32;19980;-75
2022/12/11 06:29:15;;;;;;;;;;;;;;;;;;4393440;32;20288;-74
2022/12/11 06:31:40;;;;;;;;;;;;;;;;;;4392886;32;19934;-75
2022/12/11 06:34:05;;;;;;;;;;;;;;;;;;4392691;32;19993;-75
2022/12/11 06:36:31;;;;;;;;;;;;;;;;;;4392473;32;20019;-76
2022/12/11 06:38:56;;;;;;;;;;;;;;;;;;4392151;32;19968;-75
2022/12/11 06:41:21;;;;;;;;;;;;;;;;;;4392824;32;20267;-76
2022/12/11 06:43:46;;;;;;;;;;;;;;;;;;4392038;32;20353;-75
2022/12/11 06:46:11;;;;;;;;;;;;;;;;;;4392708;32;19949;-74
2022/12/11 06:48:36;;;;;;;;;;;;;;;;;;4391591;32;20341;-75
2022/12/11 06:51:01;;;;;;;;;;;;;;;;;;4392016;32;19952;-75
2022/12/11 06:53:27;;;;;;;;;;;;;;;;;;4391941;32;19942;-74
2022/12/11 06:55:52;;;;;;;;;;;;;;;;;;4391957;32;19992;-74
2022/12/11 06:58:17;;;;;;;;;;;;;;;;;;4390537;32;19937;-75
2022/12/11 07:00:42;;;;;;;;;;;;;;;;;;4390313;32;20397;-75
2022/12/11 07:03:07;;;;;;;;;;;;;;;;;;4392160;32;19960;-75
2022/12/11 07:05:32;;;;;;;;;;;;;;;;;;4392662;32;19953;-75
2022/12/11 07:07:57;;;;;;;;;;;;;;;;;;4391101;32;19942;-75
2022/12/11 07:10:22;;;;;;;;;;;;;;;;;;4392048;32;19934;-75
2022/12/11 07:12:48;;;;;;;;;;;;;;;;;;4392070;32;19937;-75
2022/12/11 07:15:13;;;;;;;;;;;;;;;;;;4390891;32;19938;-75
2022/12/11 07:17:38;;;;;;;;;;;;;;;;;;4390345;32;19952;-76
2022/12/11 07:20:03;;;;;;;;;;;;;;;;;;4393863;32;19978;-74
2022/12/11 07:22:28;;;;;;;;;;;;;;;;;;4392100;32;19935;-74
2022/12/11 07:24:53;;;;;;;;;;;;;;;;;;4391720;32;19942;-75
2022/12/11 07:27:19;;;;;;;;;;;;;;;;;;4390307;32;20334;-75
2022/12/11 07:29:44;;;;;;;;;;;;;;;;;;4391760;32;19949;-75
2022/12/11 07:32:09;;;;;;;;;;;;;;;;;;4391316;32;20287;-75
2022/12/11 07:34:34;;;;;;;;;;;;;;;;;;4391919;32;19945;-76
2022/12/11 07:36:59;;;;;;;;;;;;;;;;;;4391495;32;19937;-75
2022/12/11 07:39:24;;;;;;;;;;;;;;;;;;4393200;32;19938;-75
2022/12/11 07:41:49;;;;;;;;;;;;;;;;;;4392967;32;19948;-75
2022/12/11 07:44:14;;;;;;;;;;;;;;;;;;4395110;32;19945;-76
2022/12/11 07:46:40;;;;;;;;;;;;;;;;;;4390885;32;19948;-76
2022/12/11 07:49:05;;;;;;;;;;;;;;;;;;4392485;32;19952;-75
2022/12/11 07:51:30;;;;;;;;;;;;;;;;;;4389737;32;19964;-75
2022/12/11 07:53:55;;;;;;;;;;;;;;;;;;4389936;32;19945;-75
2022/12/11 07:56:20;;;;;;;;;;;;;;;;;;4392154;32;19942;-75
2022/12/11 07:58:45;;;;;;;;;;;;;;;;;;4390926;32;20056;-75
2022/12/11 08:01:11;;;;;;;;;;;;;;;;;;4389993;32;20007;-76
2022/12/11 08:03:36;;;;;;;;;;;;;;;;;;4391339;32;19950;-73
2022/12/11 08:06:01;;;;;;;;;;;;;;;;;;4390932;32;19977;-75
2022/12/11 08:08:27;;;;;;;;;;;;;;;;;;4391126;32;19982;-74
2022/12/11 08:10:52;;;;;;;;;;;;;;;;;;4391257;32;20007;-75
2022/12/11 08:13:17;;;;;;;;;;;;;;;;;;4390171;32;19933;-75
2022/12/11 08:15:42;;;;;;;;;;;;;;;;;;4392463;32;19941;-76
2022/12/11 08:18:07;;;;;;;;;;;;;;;;;;4388899;32;19982;-75
2022/12/11 08:20:32;;;;;;;;;;;;;;;;;;4390461;32;20303;-75
2022/12/11 08:22:57;;;;;;;;;;;;;;;;;;4391465;32;19938;-75
2022/12/11 08:25:23;;;;;;;;;;;;;;;;;;4391794;32;19942;-75
2022/12/11 08:27:48;;;;;;;;;;;;;;;;;;4391246;32;19941;-76
2022/12/11 08:30:13;;;;;;;;;;;;;;;;;;4391835;32;19950;-75
2022/12/11 08:32:38;;;;;;;;;;;;;;;;;;4390230;32;19941;-75
2022/12/11 08:35:03;;;;;;;;;;;;;;;;;;4390631;32;19942;-75
2022/12/11 08:37:28;;;;;;;;;;;;;;;;;;4391899;32;19948;-75
2022/12/11 08:39:53;;;;;;;;;;;;;;;;;;4391449;32;19938;-75
2022/12/11 08:42:18;;;;;;;;;;;;;;;;;;4390672;32;19960;-76
2022/12/11 08:44:44;;;;;;;;;;;;;;;;;;4390612;32;19948;-75
2022/12/11 08:47:09;;;;;;;;;;;;;;;;;;4391109;32;19989;-76
2022/12/11 08:49:35;;;;;;;;;;;;;;;;;;4390513;32;20190;-76
2022/12/11 08:52:00;;;;;;;;;;;;;;;;;;4391124;32;19949;-75
2022/12/11 08:54:25;;;;;;;;;;;;;;;;;;4389231;32;19938;-76
2022/12/11 08:56:50;;;;;;;;;;;;;;;;;;4391246;32;19945;-74
2022/12/11 08:59:15;;;;;;;;;;;;;;;;;;4390708;32;20322;-76
2022/12/11 09:01:40;;;;;;;;;;;;;;;;;;4390759;32;20308;-76
2022/12/11 09:04:05;;;;;;;;;;;;;;;;;;4390013;32;19960;-75
2022/12/11 09:06:31;;;;;;;;;;;;;;;;;;4390554;32;19942;-75
2022/12/11 09:08:56;;;;;;;;;;;;;;;;;;4392718;32;19957;-75
2022/12/11 09:11:21;;;;;;;;;;;;;;;;;;4397511;32;20000;-76
2022/12/11 09:13:46;;;;;;;;;;;;;;;;;;4395738;32;19969;-76
2022/12/11 09:16:11;;;;;;;;;;;;;;;;;;4394412;32;19938;-75
2022/12/11 09:18:36;;;;;;;;;;;;;;;;;;4393177;32;19946;-75
2022/12/11 09:21:01;;;;;;;;;;;;;;;;;;4393367;32;19948;-76
2022/12/11 09:23:27;;;;;;;;;;;;;;;;;;4393022;32;20271;-74
2022/12/11 09:25:52;;;;;;;;;;;;;;;;;;4393226;32;20036;-75
2022/12/11 09:28:17;;;;;;;;;;;;;;;;;;4392716;32;19942;-74
2022/12/11 09:30:42;;;;;;;;;;;;;;;;;;4393402;32;19973;-74
2022/12/11 09:33:07;;;;;;;;;;;;;;;;;;4393044;32;19972;-75
2022/12/11 09:35:32;;;;;;;;;;;;;;;;;;4390210;32;19983;-75
2022/12/11 09:37:57;;;;;;;;;;;;;;;;;;4387259;32;19996;-74
2022/12/11 09:40:22;;;;;;;;;;;;;;;;;;4402337;32;19942;-75
2022/12/11 09:42:47;;;;;;;;;;;;;;;;;;4390206;32;20302;-74
2022/12/11 09:45:13;;;;;;;;;;;;;;;;;;4380240;32;20349;-75
2022/12/11 09:47:38;;;;;;;;;;;;;;;;;;4378102;32;19954;-76
2022/12/11 09:50:03;;;;;;;;;;;;;;;;;;4398954;32;19964;-74
2022/12/11 09:52:28;;;;;;;;;;;;;;;;;;4392177;32;19976;-74
2022/12/11 09:54:53;;;;;;;;;;;;;;;;;;4394326;32;20282;-74
2022/12/11 09:57:18;;;;;;;;;;;;;;;;;;4392822;32;19938;-74
2022/12/11 09:59:43;;;;;;;;;;;;;;;;;;4392167;32;19960;-73
2022/12/11 10:02:09;;;;;;;;;;;;;;;;;;4403596;32;19942;-73
2022/12/11 10:04:34;;;;;;;;;;;;;;;;;;4403382;32;19979;-76
2022/12/11 10:06:59;;;;;;;;;;;;;;;;;;4392603;32;19972;-74
2022/12/11 10:09:24;;;;;;;;;;;;;;;;;;4392943;32;19933;-75
2022/12/11 10:11:49;;;;;;;;;;;;;;;;;;4390832;32;19977;-75
2022/12/11 10:14:15;;;;;;;;;;;;;;;;;;4391710;32;20316;-76
2022/12/11 10:16:40;;;;;;;;;;;;;;;;;;4392028;32;19975;-75
2022/12/11 10:19:05;;;;;;;;;;;;;;;;;;4392164;32;19933;-75
2022/12/11 10:21:30;;;;;;;;;;;;;;;;;;4390328;32;20337;-75
2022/12/11 10:23:55;;;;;;;;;;;;;;;;;;4391872;32;19997;-75
2022/12/11 10:26:20;;;;;;;;;;;;;;;;;;4393100;32;19946;-75
2022/12/11 10:28:45;;;;;;;;;;;;;;;;;;4392154;32;19937;-74
2022/12/11 10:31:11;;;;;;;;;;;;;;;;;;4392582;32;19934;-76
2022/12/11 10:33:36;;;;;;;;;;;;;;;;;;4392123;32;20363;-75
2022/12/11 10:36:01;;;;;;;;;;;;;;;;;;4390884;32;20355;-75
2022/12/11 10:38:26;;;;;;;;;;;;;;;;;;4385889;32;19938;-76
2022/12/11 10:40:51;;;;;;;;;;;;;;;;;;4388087;32;20060;-75
2022/12/11 10:43:16;;;;;;;;;;;;;;;;;;4381926;32;19956;-74
2022/12/11 10:45:41;;;;;;;;;;;;;;;;;;4385628;32;20358;-76
2022/12/11 10:48:07;;;;;;;;;;;;;;;;;;4391433;32;20351;-75
2022/12/11 10:50:32;;;;;;;;;;;;;;;;;;4402458;32;19941;-75
2022/12/11 10:52:57;;;;;;;;;;;;;;;;;;4401728;32;19958;-75
2022/12/11 10:55:22;;;;;;;;;;;;;;;;;;4384955;32;19949;-75
2022/12/11 10:57:48;;;;;;;;;;;;;;;;;;4391762;32;20114;-76
2022/12/11 11:00:13;;;;;;;;;;;;;;;;;;4389682;32;19965;-75
2022/12/11 11:02:39;;;;;;;;;;;;;;;;;;4387002;32;19939;-76
2022/12/11 11:05:04;;;;;;;;;;;;;;;;;;4375687;32;19984;-75
2022/12/11 11:07:29;;;;;;;;;;;;;;;;;;4375461;32;20372;-75
2022/12/11 11:09:54;;;;;;;;;;;;;;;;;;4377109;32;19938;-75
2022/12/11 11:12:19;;;;;;;;;;;;;;;;;;4376607;32;20411;-75
2022/12/11 11:14:44;;;;;;;;;;;;;;;;;;4376473;32;20298;-75
2022/12/11 11:17:09;;;;;;;;;;;;;;;;;;4376664;32;19939;-74
2022/12/11 11:19:34;;;;;;;;;;;;;;;;;;4376739;32;19934;-75
2022/12/11 11:21:59;;;;;;;;;;;;;;;;;;4376714;32;19954;-74
2022/12/11 11:24:25;;;;;;;;;;;;;;;;;;4377386;32;19957;-75
2022/12/11 11:26:50;;;;;;;;;;;;;;;;;;4376711;32;19938;-74
2022/12/11 11:29:15;;;;;;;;;;;;;;;;;;4377254;32;19942;-74
2022/12/11 11:31:41;;;;;;;;;;;;;;;;;;4375788;32;19948;-76
2022/12/11 11:34:06;;;;;;;;;;;;;;;;;;4387989;32;19981;-76
2022/12/11 11:36:31;;;;;;;;;;;;;;;;;;4391130;32;19980;-75
2022/12/11 11:38:57;;;;;;;;;;;;;;;;;;4389758;32;19934;-76
2022/12/11 11:41:22;;;;;;;;;;;;;;;;;;4391077;32;19938;-75
2022/12/11 11:43:48;;;;;;;;;;;;;;;;;;4401946;32;20338;-75
2022/12/11 11:46:13;;;;;;;;;;;;;;;;;;4390976;32;19960;-76
2022/12/11 11:48:38;;;;;;;;;;;;;;;;;;4392737;32;20367;-74
2022/12/11 11:51:04;;;;;;;;;;;;;;;;;;4403526;32;19997;-75
2022/12/11 11:53:29;;;;;;;;;;;;;;;;;;4390836;32;19961;-74
2022/12/11 11:55:54;;;;;;;;;;;;;;;;;;4390739;32;19933;-74
2022/12/11 11:58:21;;;;;;;;;;;;;;;;;;4391398;32;20358;-76
2022/12/11 12:00:46;;;;;;;;;;;;;;;;;;4401973;32;20255;-75
2022/12/11 12:03:11;;;;;;;;;;;;;;;;;;4391297;32;20318;-75
2022/12/11 12:05:38;;;;;;;;;;;;;;;;;;4390961;32;20046;-75
2022/12/11 12:08:03;;;;;;;;;;;;;;;;;;4391030;32;20296;-75
2022/12/11 12:10:28;;;;;;;;;;;;;;;;;;4394810;32;20267;-76
2022/12/11 12:12:53;;;;;;;;;;;;;;;;;;4390602;32;19942;-75
2022/12/11 12:15:18;;;;;;;;;;;;;;;;;;4390447;32;19956;-75
2022/12/11 12:17:44;;;;;;;;;;;;;;;;;;4392165;32;20284;-75
2022/12/11 12:20:09;;;;;;;;;;;;;;;;;;4390154;32;19948;-75
2022/12/11 12:22:35;;;;;;;;;;;;;;;;;;4390670;32;20315;-74
2022/12/11 12:25:00;;;;;;;;;;;;;;;;;;4388859;32;19938;-75
2022/12/11 12:27:25;;;;;;;;;;;;;;;;;;4390009;32;19975;-75
2022/12/11 12:29:50;;;;;;;;;;;;;;;;;;4389909;32;20131;-75
2022/12/11 12:32:15;;;;;;;;;;;;;;;;;;4387480;32;19972;-75
2022/12/11 12:34:41;;;;;;;;;;;;;;;;;;4391107;32;19971;-76
2022/12/11 12:37:06;;;;;;;;;;;;;;;;;;4390381;32;19994;-76
2022/12/11 12:39:31;;;;;;;;;;;;;;;;;;4401838;32;20323;-74
2022/12/11 12:41:56;;;;;;;;;;;;;;;;;;4390918;32;20225;-74
2022/12/11 12:44:21;;;;;;;;;;;;;;;;;;4391462;32;19937;-76
2022/12/11 12:46:46;;;;;;;;;;;;;;;;;;4393292;32;19952;-75
2022/12/11 12:49:11;;;;;;;;;;;;;;;;;;4393630;32;20377;-74
2022/12/11 12:51:36;;;;;;;;;;;;;;;;;;4393736;32;19938;-74
2022/12/11 12:54:02;;;;;;;;;;;;;;;;;;4392884;32;19956;-75
2022/12/11 12:56:27;;;;;;;;;;;;;;;;;;4393463;32;19954;-76
2022/12/11 12:58:52;;;;;;;;;;;;;;;;;;4393525;32;20055;-76
2022/12/11 13:01:18;;;;;;;;;;;;;;;;;;4393931;32;19934;-77
2022/12/11 13:03:43;;;;;;;;;;;;;;;;;;4394509;32;20260;-76
2022/12/11 13:06:09;;;;;;;;;;;;;;;;;;4393351;32;20303;-76
2022/12/11 13:08:34;;;;;;;;;;;;;;;;;;4392741;32;19952;-76
2022/12/11 13:10:59;;;;;;;;;;;;;;;;;;4392839;32;19942;-75
2022/12/11 13:13:24;;;;;;;;;;;;;;;;;;4392583;32;19941;-76
2022/12/11 13:15:49;;;;;;;;;;;;;;;;;;4392519;32;19948;-76
2022/12/11 13:18:14;;;;;;;;;;;;;;;;;;4393156;32;19949;-75
2022/12/11 13:20:39;;;;;;;;;;;;;;;;;;4392831;32;19949;-76
2022/12/11 13:23:05;;;;;;;;;;;;;;;;;;4394024;32;20291;-75
2022/12/11 13:25:30;;;;;;;;;;;;;;;;;;4394094;32;19960;-77
2022/12/11 13:27:55;;;;;;;;;;;;;;;;;;4394222;32;19934;-77
2022/12/11 13:30:21;;;;;;;;;;;;;;;;;;4394665;32;19971;-75
2022/12/11 13:32:47;;;;;;;;;;;;;;;;;;4391305;32;20338;-76
2022/12/11 13:35:12;;;;;;;;;;;;;;;;;;4390521;32;20366;-76
2022/12/11 13:37:37;;;;;;;;;;;;;;;;;;4380953;32;19934;-76
2022/12/11 13:40:02;;;;;;;;;;;;;;;;;;4397228;32;20317;-77
2022/12/11 13:42:28;;;;;;;;;;;;;;;;;;4396244;32;19949;-77
2022/12/11 13:44:53;;;;;;;;;;;;;;;;;;4392873;32;20032;-75
2022/12/11 13:47:18;;;;;;;;;;;;;;;;;;4392150;32;19937;-76
2022/12/11 13:49:43;;;;;;;;;;;;;;;;;;4392274;32;19971;-75
2022/12/11 13:52:08;;;;;;;;;;;;;;;;;;4392738;32;19933;-76
2022/12/11 13:54:33;;;;;;;;;;;;;;;;;;4392237;32;19938;-74
2022/12/11 13:56:58;;;;;;;;;;;;;;;;;;4393264;32;19990;-76
2022/12/11 13:59:23;;;;;;;;;;;;;;;;;;4394160;32;20294;-76
2022/12/11 14:01:49;;;;;;;;;;;;;;;;;;4396832;32;19973;-75
2022/12/11 14:04:14;;;;;;;;;;;;;;;;;;4394679;32;19938;-75
2022/12/11 14:06:39;;;;;;;;;;;;;;;;;;4392824;32;19934;-75
2022/12/11 14:09:04;;;;;;;;;;;;;;;;;;4392422;32;19949;-75
2022/12/11 14:11:29;;;;;;;;;;;;;;;;;;4393119;32;19967;-75
2022/12/11 14:13:55;;;;;;;;;;;;;;;;;;4391423;32;19997;-75
2022/12/11 14:16:20;;;;;;;;;;;;;;;;;;4393071;32;19933;-75
2022/12/11 14:18:45;;;;;;;;;;;;;;;;;;4393572;32;19949;-76
2022/12/11 14:21:10;;;;;;;;;;;;;;;;;;4393051;32;19934;-76
2022/12/11 14:23:35;;;;;;;;;;;;;;;;;;4394865;32;19950;-76
2022/12/11 14:26:00;;;;;;;;;;;;;;;;;;4393186;32;19999;-76
2022/12/11 14:28:26;;;;;;;;;;;;;;;;;;4393762;32;20008;-77
2022/12/11 14:30:51;;;;;;;;;;;;;;;;;;4393291;32;19945;-76
2022/12/11 14:33:16;;;;;;;;;;;;;;;;;;4394936;32;19951;-75
2022/12/11 14:35:42;;;;;;;;;;;;;;;;;;4396085;32;20065;-74
2022/12/11 14:38:08;;;;;;;;;;;;;;;;;;4394978;32;19937;-75
2022/12/11 14:40:33;;;;;;;;;;;;;;;;;;4394165;32;20299;-75
2022/12/11 14:42:58;;;;;;;;;;;;;;;;;;4394930;32;19946;-75
2022/12/11 14:45:23;;;;;;;;;;;;;;;;;;4393472;32;19949;-76
2022/12/11 14:47:48;;;;;;;;;;;;;;;;;;4393173;32;19933;-75
2022/12/11 14:50:13;;;;;;;;;;;;;;;;;;4385178;32;19949;-76
2022/12/11 14:52:38;;;;;;;;;;;;;;;;;;4378336;32;20210;-76
2022/12/11 14:55:03;;;;;;;;;;;;;;;;;;4389240;32;19937;-75
2022/12/11 14:57:29;;;;;;;;;;;;;;;;;;4393000;32;19938;-76
2022/12/11 14:59:54;;;;;;;;;;;;;;;;;;4405619;32;20307;-77
2022/12/11 15:02:19;;;;;;;;;;;;;;;;;;4404931;32;19937;-75
2022/12/11 15:04:44;;;;;;;;;;;;;;;;;;4395748;32;19938;-76
2022/12/11 15:07:09;;;;;;;;;;;;;;;;;;4390145;32;19933;-75
2022/12/11 15:09:35;;;;;;;;;;;;;;;;;;4397345;32;19930;-76
2022/12/11 15:12:00;;;;;;;;;;;;;;;;;;4400946;32;19946;-76
2022/12/11 15:14:25;;;;;;;;;;;;;;;;;;4388200;32;20304;-76
2022/12/11 15:16:50;;;;;;;;;;;;;;;;;;4392654;32;19945;-76
2022/12/11 15:19:15;;;;;;;;;;;;;;;;;;4390588;32;20265;-76
2022/12/11 15:21:40;;;;;;;;;;;;;;;;;;4377311;32;19990;-76
2022/12/11 15:24:06;;;;;;;;;;;;;;;;;;4393593;32;19937;-76
2022/12/11 15:26:31;;;;;;;;;;;;;;;;;;4404719;32;19946;-74
2022/12/11 15:28:56;;;;;;;;;;;;;;;;;;4389502;32;20291;-72
2022/12/11 15:31:21;;;;;;;;;;;;;;;;;;4377746;32;19984;-71
2022/12/11 15:33:46;;;;;;;;;;;;;;;;;;4377737;32;20316;-70
2022/12/11 15:36:11;;;;;;;;;;;;;;;;;;4376942;32;19969;-70
2022/12/11 15:38:39;;;;;;;;;;;;;;;;;;4379610;32;19952;-71
2022/12/11 15:41:04;;;;;;;;;;;;;;;;;;4391701;32;19968;-69
2022/12/11 15:43:29;;;;;;;;;;;;;;;;;;4394029;32;20299;-70
2022/12/11 15:45:54;;;;;;;;;;;;;;;;;;4392946;32;19968;-70
2022/12/11 15:48:19;;;;;;;;;;;;;;;;;;4392475;32;19941;-71
2022/12/11 15:50:45;;;;;;;;;;;;;;;;;;4394252;32;19934;-71
2022/12/11 15:53:10;;;;;;;;;;;;;;;;;;4390811;32;19956;-71
2022/12/11 15:55:35;;;;;;;;;;;;;;;;;;4392636;32;19934;-71
2022/12/11 15:58:00;;;;;;;;;;;;;;;;;;4385014;32;20251;-71
2022/12/11 16:00:29;;;;;;;;;;;;;;;;;;4378876;32;20041;-71
2022/12/11 16:02:54;;;;;;;;;;;;;;;;;;4391594;32;19950;-71
2022/12/11 16:05:20;;;;;;;;;;;;;;;;;;4402881;32;19946;-71
2022/12/11 16:07:45;;;;;;;;;;;;;;;;;;4391567;32;19953;-70
2022/12/11 16:10:10;;;;;;;;;;;;;;;;;;4391893;32;20394;-71
2022/12/11 16:12:35;;;;;;;;;;;;;;;;;;4391373;32;19942;-70
2022/12/11 16:15:00;;;;;;;;;;;;;;;;;;4392155;32;19996;-72
2022/12/11 16:17:26;;;;;;;;;;;;;;;;;;4402417;32;19942;-71
2022/12/11 16:19:51;;;;;;;;;;;;;;;;;;4388441;32;20298;-71
2022/12/11 16:22:16;;;;;;;;;;;;;;;;;;4388976;32;20003;-71
2022/12/11 16:24:41;;;;;;;;;;;;;;;;;;4390993;32;19943;-70
2022/12/11 16:27:06;;;;;;;;;;;;;;;;;;4389007;32;19945;-70
2022/12/11 16:29:31;;;;;;;;;;;;;;;;;;4381462;32;19990;-71
2022/12/11 16:31:57;;;;;;;;;;;;;;;;;;4383635;32;19938;-70
2022/12/11 16:34:22;;;;;;;;;;;;;;;;;;4380660;32;20038;-71
2022/12/11 16:36:47;;;;;;;;;;;;;;;;;;4381319;32;20298;-71
2022/12/11 16:39:12;;;;;;;;;;;;;;;;;;4393748;32;19985;-72
2022/12/11 16:41:37;;;;;;;;;;;;;;;;;;4396035;32;19956;-72